Time;durP1;ratioP1;P1;durP2;ratioP2;P2;SDS_P1;SDS_P2;PMS_P1;PMS_P2;Temp;Humidity;BMP_temperature;BMP_pressure;BME280_temperature;BME280_humidity;BME280_pressure;Samples;Min_cycle;Max_cycle;Signal;HPM_P1;HPM_P2
2023/07/31 00:01:12;;;;;;;4.80;3.90;;;;;;;17.50;100.00;96867.04;110098;1251;69319;-66
2023/07/31 00:03:43;;;;;;;5.00;4.10;;;;;;;17.50;100.00;96861.79;110149;1245;59744;-66
2023/07/31 00:06:14;;;;;;;6.50;4.40;;;;;;;17.48;100.00;96851.99;110129;1241;59755;-66
2023/07/31 00:08:45;;;;;;;5.20;4.40;;;;;;;17.48;100.00;96844.23;110060;1247;71426;-64
2023/07/31 00:11:19;;;;;;;4.50;3.40;;;;;;;17.47;100.00;96846.96;110107;1245;69718;-67
2023/07/31 00:13:53;;;;;;;4.80;3.60;;;;;;;17.48;100.00;96845.59;110065;1246;69271;-67
2023/07/31 00:16:24;;;;;;;5.30;3.70;;;;;;;17.50;100.00;96846.50;110180;1244;59684;-66
2023/07/31 00:18:56;;;;;;;4.20;3.70;;;;;;;17.52;100.00;96848.52;110167;1246;59773;-67
2023/07/31 00:21:29;;;;;;;5.00;4.00;;;;;;;17.54;100.00;96847.81;110144;1241;69674;-67
2023/07/31 00:23:58;;;;;;;;;;;;;;;17.54;100.00;96851.33;110119;1245;69050;-65
2023/07/31 00:26:30;;;;;;;3.90;3.40;;;;;;;17.54;100.00;96851.11;109549;1245;785779;-66
2023/07/31 00:29:01;;;;;;;4.30;3.30;;;;;;;17.55;100.00;96849.77;110104;1245;59743;-65
2023/07/31 00:31:33;;;;;;;4.10;3.10;;;;;;;17.56;100.00;96845.79;110166;1245;59801;-66
2023/07/31 00:34:06;;;;;;;3.80;3.00;;;;;;;17.58;100.00;96841.77;110168;1252;71396;-65
2023/07/31 00:36:41;;;;;;;3.90;2.90;;;;;;;17.59;100.00;96837.59;110149;1243;67408;-65
2023/07/31 00:39:14;;;;;;;3.40;2.80;;;;;;;17.57;100.00;96835.99;110210;1245;67407;-65
2023/07/31 00:41:46;;;;;;;5.20;3.60;;;;;;;17.58;100.00;96834.20;110120;1247;59711;-66
2023/07/31 00:44:20;;;;;;;4.50;4.00;;;;;;;17.58;100.00;96831.77;110163;1243;59673;-66
2023/07/31 00:46:50;;;;;;;4.10;3.30;;;;;;;17.58;100.00;96836.77;110152;1246;70565;-65
2023/07/31 00:49:23;;;;;;;5.10;3.40;;;;;;;17.53;100.00;96836.61;110130;1246;68480;-65
2023/07/31 00:52:02;;;;;;;3.80;3.10;;;;;;;17.53;100.00;96841.79;110137;1246;69336;-64
2023/07/31 00:54:36;;;;;;;4.70;3.90;;;;;;;17.53;100.00;96842.98;110144;1246;59703;-66
2023/07/31 00:57:08;;;;;;;5.10;4.10;;;;;;;17.53;100.00;96838.54;110159;1247;59695;-65
2023/07/31 00:59:41;;;;;;;4.30;3.90;;;;;;;17.52;100.00;96834.98;110166;1246;71340;-65
2023/07/31 01:02:15;;;;;;;4.60;3.70;;;;;;;17.52;100.00;96831.84;110178;1241;68432;-64
2023/07/31 01:04:46;;;;;;;5.30;3.40;;;;;;;17.51;100.00;96833.09;110091;1245;69387;-65
2023/07/31 01:07:32;;;;;;;4.30;3.40;;;;;;;17.52;100.00;96829.30;110172;1241;59753;-65
2023/07/31 01:10:14;;;;;;;4.30;3.40;;;;;;;17.53;100.00;96832.04;110153;1244;59702;-66
2023/07/31 01:12:51;;;;;;;4.60;3.40;;;;;;;17.53;100.00;96828.86;110121;1252;71071;-66
2023/07/31 01:15:22;;;;;;;4.00;3.20;;;;;;;17.53;100.00;96827.31;110130;1243;69305;-65
2023/07/31 01:17:55;;;;;;;4.50;3.30;;;;;;;17.52;100.00;96830.52;110126;1241;69371;-66
2023/07/31 01:20:30;;;;;;;3.70;3.00;;;;;;;17.50;100.00;96831.27;110156;1241;60023;-66
2023/07/31 01:23:14;;;;;;;4.20;3.10;;;;;;;17.48;100.00;96828.77;110166;1244;59688;-65
2023/07/31 01:26:02;;;;;;;3.80;2.90;;;;;;;17.45;100.00;96830.95;110118;1241;71424;-65
2023/07/31 01:28:54;;;;;;;3.60;3.20;;;;;;;17.44;100.00;96830.23;110143;1243;68537;-65
2023/07/31 01:31:30;;;;;;;3.50;2.90;;;;;;;17.42;100.00;96828.84;110183;1241;69139;-65
2023/07/31 01:34:09;;;;;;;4.00;3.00;;;;;;;17.42;100.00;96833.30;110133;1246;59729;-65
2023/07/31 01:36:40;;;;;;;4.20;3.40;;;;;;;17.42;100.00;96837.47;110225;1241;59670;-67
2023/07/31 01:39:15;;;;;;;3.90;2.90;;;;;;;17.43;100.00;96838.66;110137;1243;71470;-66
2023/07/31 01:41:48;;;;;;;4.30;3.50;;;;;;;17.45;100.00;96838.83;110120;1242;68558;-66
2023/07/31 01:44:20;;;;;;;4.00;3.30;;;;;;;17.45;100.00;96834.73;110146;1241;69324;-66
2023/07/31 01:46:54;;;;;;;3.60;3.10;;;;;;;17.45;100.00;96835.23;110084;1245;59702;-67
2023/07/31 01:49:27;;;;;;;5.40;4.00;;;;;;;17.46;100.00;96833.49;110065;1245;59654;-66
2023/07/31 01:52:00;;;;;;;4.80;4.10;;;;;;;17.47;100.00;96834.65;110101;1241;71329;-66
2023/07/31 01:54:32;;;;;;;4.00;3.30;;;;;;;17.46;100.00;96836.65;110150;1246;70276;-66
2023/07/31 01:57:04;;;;;;;4.00;3.50;;;;;;;17.46;100.00;96836.40;110191;1251;68552;-67
2023/07/31 01:59:37;;;;;;;5.80;4.70;;;;;;;17.45;100.00;96836.27;110154;1252;59698;-66
2023/07/31 02:02:11;;;;;;;5.70;3.60;;;;;;;17.44;100.00;96836.61;110155;1245;59654;-66
2023/07/31 02:04:43;;;;;;;4.60;3.80;;;;;;;17.43;100.00;96841.27;110157;1246;70466;-66
2023/07/31 02:07:13;;;;;;;5.40;3.70;;;;;;;17.42;100.00;96840.50;110177;1241;68471;-67
2023/07/31 02:09:47;;;;;;;5.70;4.90;;;;;;;17.42;100.00;96842.13;110103;1245;69326;-66
2023/07/31 02:12:19;;;;;;;4.50;3.80;;;;;;;17.42;100.00;96845.77;110081;1249;59749;-66
2023/07/31 02:14:53;;;;;;;4.90;3.60;;;;;;;17.42;100.00;96843.38;110123;1245;59670;-66
2023/07/31 02:17:24;;;;;;;4.10;3.20;;;;;;;17.41;100.00;96841.87;110142;1241;71294;-66
2023/07/31 02:19:56;;;;;;;4.80;3.50;;;;;;;17.42;100.00;96846.88;110146;1246;69655;-66
2023/07/31 02:22:28;;;;;;;3.60;3.30;;;;;;;17.42;100.00;96853.21;110112;1244;68537;-66
2023/07/31 02:25:00;;;;;;;3.90;3.00;;;;;;;17.43;100.00;96858.70;110134;1241;59715;-66
2023/07/31 02:27:33;;;;;;;4.40;3.30;;;;;;;17.43;100.00;96856.92;110173;1245;60006;-66
2023/07/31 02:30:03;;;;;;;;;;;;;;;17.44;100.00;96860.36;110126;1245;71191;-64
2023/07/31 02:32:38;;;;;;;4.00;3.20;;;;;;;17.45;100.00;96854.31;110171;1245;69214;-64
2023/07/31 02:35:09;;;;;;;4.20;3.00;;;;;;;17.43;100.00;96857.45;110101;1241;68525;-64
2023/07/31 02:37:45;;;;;;;4.40;3.00;;;;;;;17.44;100.00;96859.42;110143;1241;59736;-64
2023/07/31 02:40:16;;;;;;;3.90;3.20;;;;;;;17.45;100.00;96861.71;110133;1244;59743;-68
2023/07/31 02:42:48;;;;;;;3.60;2.80;;;;;;;17.44;100.00;96864.02;110172;1245;71219;-62
2023/07/31 02:45:20;;;;;;;4.00;3.00;;;;;;;17.45;100.00;96868.86;110201;1245;69179;-66
2023/07/31 02:47:51;;;;;;;3.70;2.60;;;;;;;17.46;100.00;96870.19;110143;1245;69298;-67
2023/07/31 02:50:24;;;;;;;3.40;2.70;;;;;;;17.47;100.00;96871.45;110114;1245;59704;-66
2023/07/31 02:52:55;;;;;;;3.40;3.00;;;;;;;17.49;100.00;96871.84;110164;1245;59728;-67
2023/07/31 02:55:28;;;;;;;3.60;2.70;;;;;;;17.50;100.00;96872.33;110182;1245;71643;-66
2023/07/31 02:57:59;;;;;;;3.40;2.90;;;;;;;17.53;100.00;96872.64;110177;1250;68364;-65
2023/07/31 03:00:29;;;;;;;4.10;2.90;;;;;;;17.55;100.00;96872.34;110147;1241;69363;-65
2023/07/31 03:03:02;;;;;;;3.20;2.80;;;;;;;17.57;100.00;96871.04;110105;1245;59708;-64
2023/07/31 03:05:32;;;;;;;4.30;3.20;;;;;;;17.60;100.00;96871.80;110148;1245;59703;-65
2023/07/31 03:08:05;;;;;;;3.30;2.40;;;;;;;17.60;100.00;96871.08;110180;1241;71218;-66
2023/07/31 03:10:37;;;;;;;3.60;2.90;;;;;;;17.58;100.00;96880.88;110101;1245;69309;-66
2023/07/31 03:13:09;;;;;;;4.30;2.60;;;;;;;17.55;100.00;96882.73;110094;1246;69224;-66
2023/07/31 03:15:43;;;;;;;4.00;3.00;;;;;;;17.55;100.00;96883.29;110185;1241;59670;-66
2023/07/31 03:18:14;;;;;;;3.60;3.00;;;;;;;17.53;100.00;96883.86;110136;1241;59750;-65
2023/07/31 03:20:46;;;;;;;4.20;3.40;;;;;;;17.51;100.00;96884.09;110129;1252;71659;-66
2023/07/31 03:23:18;;;;;;;4.40;3.50;;;;;;;17.51;100.00;96886.66;110133;1251;69274;-66
2023/07/31 03:26:03;;;;;;;4.10;3.10;;;;;;;17.53;100.00;96885.92;110121;1245;69322;-66
2023/07/31 03:28:34;;;;;;;3.50;3.20;;;;;;;17.56;100.00;96883.55;110136;1251;59692;-66
2023/07/31 03:31:04;;;;;;;3.50;2.90;;;;;;;17.58;100.00;96880.80;110192;1243;59701;-67
2023/07/31 03:33:35;;;;;;;4.60;3.70;;;;;;;17.61;100.00;96882.85;110217;1245;71703;-67
2023/07/31 03:36:05;;;;;;;4.50;3.60;;;;;;;17.63;100.00;96883.45;110211;1243;69099;-67
2023/07/31 03:38:36;;;;;;;5.10;4.10;;;;;;;17.69;100.00;96882.41;110175;1245;69765;-66
2023/07/31 03:41:06;;;;;;;4.50;3.80;;;;;;;17.73;100.00;96881.42;110126;1244;59688;-66
2023/07/31 03:43:38;;;;;;;3.90;3.20;;;;;;;17.78;100.00;96882.34;110264;1244;59611;-66
2023/07/31 03:46:10;;;;;;;4.20;3.70;;;;;;;17.80;100.00;96879.64;110258;1246;71327;-67
2023/07/31 03:48:42;;;;;;;4.70;3.50;;;;;;;17.83;100.00;96882.20;110202;1241;69248;-66
2023/07/31 03:51:11;;;;;;;5.50;3.90;;;;;;;17.83;100.00;96881.17;110061;1245;69322;-65
2023/07/31 03:53:42;;;;;;;5.00;4.50;;;;;;;17.82;100.00;96883.86;110102;1244;59693;-67
2023/07/31 03:56:11;;;;;;;5.20;4.10;;;;;;;17.81;100.00;96884.68;110107;1244;59806;-66
2023/07/31 03:58:41;;;;;;;5.80;4.00;;;;;;;17.80;100.00;96883.37;110180;1241;71687;-66
2023/07/31 04:01:12;;;;;;;4.60;3.60;;;;;;;17.80;100.00;96883.17;110133;1244;69160;-65
2023/07/31 04:03:41;;;;;;;5.80;3.90;;;;;;;17.81;100.00;96883.20;110148;1244;70222;-65
2023/07/31 04:06:11;;;;;;;4.60;3.50;;;;;;;17.81;100.00;96884.86;110214;1242;59729;-65
2023/07/31 04:08:42;;;;;;;5.50;3.50;;;;;;;17.79;100.00;96880.30;110165;1241;59670;-66
2023/07/31 04:11:12;;;;;;;3.70;3.20;;;;;;;17.78;100.00;96879.58;110167;1241;71281;-64
2023/07/31 04:13:43;;;;;;;5.40;3.00;;;;;;;17.76;100.00;96881.99;110149;1244;68314;-67
2023/07/31 04:16:13;;;;;;;3.10;2.70;;;;;;;17.77;100.00;96882.11;110142;1241;68593;-65
2023/07/31 04:18:44;;;;;;;4.80;3.00;;;;;;;17.77;100.00;96885.98;110073;1243;59671;-67
2023/07/31 04:21:13;;;;;;;;;;;;;;;17.77;100.00;96887.70;110172;1241;59679;-65
2023/07/31 04:23:43;;;;;;;3.30;2.90;;;;;;;17.77;100.00;96890.18;110125;1244;71565;-65
2023/07/31 04:26:12;;;;;;;4.00;3.30;;;;;;;17.80;100.00;96892.16;110100;1241;69147;-65
2023/07/31 04:28:42;;;;;;;4.00;3.40;;;;;;;17.79;100.00;96891.17;110070;1244;69360;-65
2023/07/31 04:31:11;;;;;;;4.30;3.20;;;;;;;17.77;100.00;96890.67;110180;1241;59755;-65
2023/07/31 04:33:41;;;;;;;4.00;3.50;;;;;;;17.76;100.00;96889.62;110198;1245;59691;-65
2023/07/31 04:36:10;;;;;;;3.20;2.90;;;;;;;17.76;100.00;96891.55;110242;1244;71376;-66
2023/07/31 04:38:41;;;;;;;3.90;3.40;;;;;;;17.78;100.00;96889.34;110188;1245;68498;-67
2023/07/31 04:41:12;;;;;;;4.20;3.20;;;;;;;17.79;100.00;96889.27;110116;1243;68746;-66
2023/07/31 04:43:43;;;;;;;3.30;2.90;;;;;;;17.79;100.00;96894.54;110118;1245;59754;-66
2023/07/31 04:46:13;;;;;;;4.00;3.20;;;;;;;17.77;100.00;96898.60;110138;1244;59754;-65
2023/07/31 04:48:43;;;;;;;4.00;3.10;;;;;;;17.78;100.00;96905.94;110125;1244;71352;-65
2023/07/31 04:51:12;;;;;;;;;;;;;;;17.73;100.00;96914.40;110159;1241;67648;-65
2023/07/31 04:53:42;;;;;;;4.30;3.90;;;;;;;17.66;100.00;96912.30;110078;1245;69808;-67
2023/07/31 04:56:13;;;;;;;4.40;3.60;;;;;;;17.63;100.00;96914.46;110123;1241;59682;-68
2023/07/31 04:58:43;;;;;;;4.80;4.20;;;;;;;17.60;100.00;96914.06;110147;1243;59688;-68
2023/07/31 05:01:13;;;;;;;4.80;4.00;;;;;;;17.58;100.00;96915.92;110100;1241;71207;-67
2023/07/31 05:03:42;;;;;;;;;;;;;;;17.57;100.00;96917.45;110108;1243;69811;-68
2023/07/31 05:06:13;;;;;;;5.20;3.40;;;;;;;17.59;100.00;96919.62;110143;1245;69215;-68
2023/07/31 05:08:42;;;;;;;3.90;3.40;;;;;;;17.63;100.00;96916.74;110168;1243;59727;-68
2023/07/31 05:11:12;;;;;;;4.20;3.60;;;;;;;17.68;100.00;96919.74;110173;1244;59636;-70
2023/07/31 05:13:42;;;;;;;5.10;4.10;;;;;;;17.70;100.00;96922.65;110123;1241;71554;-68
2023/07/31 05:16:11;;;;;;;;;;;;;;;17.72;100.00;96922.15;110136;1242;68384;-67
2023/07/31 05:18:41;;;;;;;4.30;3.60;;;;;;;17.76;100.00;96921.31;110138;1244;69647;-67
2023/07/31 05:21:11;;;;;;;3.90;3.20;;;;;;;17.83;100.00;96921.86;110091;1244;59696;-67
2023/07/31 05:23:40;;;;;;;4.00;3.00;;;;;;;17.89;100.00;96920.41;110097;1243;59652;-68
2023/07/31 05:26:10;;;;;;;3.30;2.70;;;;;;;17.97;100.00;96917.79;110154;1243;71409;-67
2023/07/31 05:28:40;;;;;;;4.00;2.90;;;;;;;18.06;100.00;96914.89;110121;1241;69870;-68
2023/07/31 05:31:10;;;;;;;3.10;2.80;;;;;;;18.15;100.00;96915.95;110132;1242;68593;-67
2023/07/31 05:33:39;;;;;;;4.40;3.50;;;;;;;18.25;100.00;96921.77;110192;1244;59744;-68
2023/07/31 05:36:09;;;;;;;3.90;3.20;;;;;;;18.33;100.00;96919.55;110130;1244;59685;-68
2023/07/31 05:38:38;;;;;;;5.20;3.60;;;;;;;18.43;100.00;96923.07;110110;1244;71551;-67
2023/07/31 05:41:12;;;;;;;3.50;3.10;;;;;;;18.54;100.00;96927.83;110120;1242;69661;-67
2023/07/31 05:43:42;;;;;;;3.20;2.70;;;;;;;18.67;100.00;96933.06;110135;1244;68618;-69
2023/07/31 05:46:12;;;;;;;4.00;3.10;;;;;;;18.74;100.00;96934.42;110123;1245;59743;-67
2023/07/31 05:48:42;;;;;;;3.20;2.90;;;;;;;18.77;100.00;96936.52;110144;1244;59694;-72
2023/07/31 05:51:11;;;;;;;3.90;2.90;;;;;;;18.82;100.00;96939.09;110301;1244;70664;-67
2023/07/31 05:53:41;;;;;;;4.30;3.20;;;;;;;18.87;100.00;96940.22;110126;1245;69639;-68
2023/07/31 05:56:10;;;;;;;4.20;3.30;;;;;;;18.88;100.00;96942.13;110132;1244;69888;-69
2023/07/31 05:58:39;;;;;;;5.20;3.80;;;;;;;18.95;100.00;96938.22;110120;1244;59649;-69
2023/07/31 06:01:08;;;;;;;3.90;3.30;;;;;;;18.92;100.00;96936.05;110185;1248;59763;-69
2023/07/31 06:03:37;;;;;;;3.70;3.30;;;;;;;18.90;100.00;96936.52;110226;1244;70497;-69
2023/07/31 06:06:08;;;;;;;;;;;;;;;18.96;100.00;96932.11;110169;1243;68681;-69
2023/07/31 06:08:37;;;;;;;3.80;3.10;;;;;;;19.10;100.00;96938.41;110131;1242;69079;-68
2023/07/31 06:11:07;;;;;;;4.30;2.90;;;;;;;19.12;100.00;96936.38;110200;1241;59693;-69
2023/07/31 06:13:36;;;;;;;4.30;3.30;;;;;;;19.14;100.00;96934.28;110147;1245;59638;-70
2023/07/31 06:16:06;;;;;;;2.90;2.70;;;;;;;19.20;100.00;96937.58;110257;1242;72068;-68
2023/07/31 06:18:35;;;;;;;;;;;;;;;19.33;100.00;96941.36;110145;1244;68220;-68
2023/07/31 06:21:05;;;;;;;3.20;2.50;;;;;;;19.44;100.00;96942.59;110095;1245;69388;-68
2023/07/31 06:23:34;;;;;;;3.60;3.10;;;;;;;19.53;100.00;96945.59;110174;1244;59674;-67
2023/07/31 06:26:03;;;;;;;4.60;3.40;;;;;;;19.60;100.00;96941.65;110226;1241;59702;-69
2023/07/31 06:28:33;;;;;;;3.50;2.70;;;;;;;19.68;100.00;96941.88;110125;1241;71969;-68
2023/07/31 06:31:02;;;;;;;;;;;;;;;19.73;100.00;96942.23;110177;1241;70028;-70
2023/07/31 06:33:31;;;;;;;4.80;3.00;;;;;;;19.82;100.00;96940.29;110063;1244;69383;-68
2023/07/31 06:36:00;;;;;;;3.70;2.70;;;;;;;19.98;100.00;96934.12;110132;1242;59750;-69
2023/07/31 06:38:30;;;;;;;3.30;2.90;;;;;;;20.17;100.00;96936.95;110103;1241;59747;-69
2023/07/31 06:40:59;;;;;;;3.80;3.20;;;;;;;20.36;100.00;96934.60;110116;1243;72022;-69
2023/07/31 06:43:28;;;;;;;4.00;3.00;;;;;;;20.48;100.00;96938.23;110135;1245;69171;-69
2023/07/31 06:45:57;;;;;;;3.30;2.80;;;;;;;20.68;100.00;96943.45;110107;1244;69847;-69
2023/07/31 06:48:26;;;;;;;3.60;3.20;;;;;;;20.91;100.00;96943.30;110161;1244;59763;-69
2023/07/31 06:50:55;;;;;;;4.40;3.50;;;;;;;21.16;100.00;96940.00;110227;1244;59644;-69
2023/07/31 06:53:24;;;;;;;5.50;3.60;;;;;;;21.53;100.00;96937.75;110105;1241;71780;-70
2023/07/31 06:55:54;;;;;;;4.60;3.60;;;;;;;21.86;99.69;96940.05;110218;1244;69789;-70
2023/07/31 06:58:23;;;;;;;4.40;3.00;;;;;;;22.10;99.29;96935.80;110136;1245;69281;-69
2023/07/31 07:00:53;;;;;;;3.70;2.50;;;;;;;22.14;97.59;96935.42;110165;1244;59699;-70
2023/07/31 07:03:21;;;;;;;4.50;3.50;;;;;;;22.25;98.24;96938.45;110099;1244;59728;-70
2023/07/31 07:05:50;;;;;;;4.90;3.70;;;;;;;22.37;99.13;96943.50;110085;1241;72151;-69
2023/07/31 07:08:20;;;;;;;3.60;3.00;;;;;;;22.44;97.33;96944.16;110109;1245;68576;-69
2023/07/31 07:10:49;;;;;;;4.50;3.10;;;;;;;22.55;96.74;96943.31;110084;1244;68691;-77
2023/07/31 07:13:18;;;;;;;3.20;2.40;;;;;;;22.60;94.66;96941.36;110103;1244;60054;-71
2023/07/31 07:15:51;;;;;;;;;;;;;;;22.73;96.60;96943.46;110133;1241;59747;-70
2023/07/31 07:18:21;;;;;;;2.90;2.30;;;;;;;22.84;94.70;96945.54;110122;1241;71998;-70
2023/07/31 07:20:52;;;;;;;2.40;2.10;;;;;;;22.94;93.32;96949.05;110226;1244;69881;-70
2023/07/31 07:23:21;;;;;;;2.40;2.00;;;;;;;23.03;90.56;96952.13;110156;1241;68580;-71
2023/07/31 07:25:51;;;;;;;2.70;2.20;;;;;;;23.14;89.19;96951.73;110118;1244;59750;-71
2023/07/31 07:28:22;;;;;;;3.00;2.10;;;;;;;23.50;86.79;96954.34;110138;1246;59669;-69
2023/07/31 07:30:55;;;;;;;2.60;1.90;;;;;;;23.91;86.04;96954.88;110191;1241;71412;-71
2023/07/31 07:33:25;;;;;;;2.60;2.10;;;;;;;24.30;84.52;96950.98;110221;1243;69833;-70
2023/07/31 07:35:53;;;;;;;2.60;2.20;;;;;;;24.62;78.87;96950.11;110139;1244;69698;-69
2023/07/31 07:38:22;;;;;;;2.30;1.90;;;;;;;24.67;78.81;96946.94;110233;1243;59686;-70
2023/07/31 07:40:53;;;;;;;2.40;2.00;;;;;;;24.60;78.78;96951.02;110134;1241;59711;-69
2023/07/31 07:43:22;;;;;;;4.00;2.10;;;;;;;24.45;79.55;96954.48;110150;1244;70824;-69
2023/07/31 07:45:51;;;;;;;2.70;1.90;;;;;;;24.34;81.14;96956.80;110168;1244;69443;-69
2023/07/31 07:48:20;;;;;;;2.20;2.00;;;;;;;24.23;81.84;96966.71;110167;1245;69691;-70
2023/07/31 07:50:49;;;;;;;3.40;2.00;;;;;;;24.09;82.21;96968.63;110213;1243;59702;-70
2023/07/31 07:53:18;;;;;;;2.30;2.00;;;;;;;23.83;81.76;96968.23;110353;1242;59737;-70
2023/07/31 07:55:47;;;;;;;2.30;2.10;;;;;;;23.32;82.71;96966.86;110192;1241;71373;-69
2023/07/31 07:58:16;;;;;;;3.50;2.10;;;;;;;23.21;84.41;96970.38;110160;1241;69833;-70
2023/07/31 08:00:50;;;;;;;2.70;1.90;;;;;;;23.13;85.38;96970.96;110135;1244;69856;-70
2023/07/31 08:03:19;;;;;;;2.10;1.90;;;;;;;22.92;85.37;96969.27;110050;1244;59742;-69
2023/07/31 08:05:49;;;;;;;2.80;2.20;;;;;;;22.79;86.25;96967.30;110209;1244;59641;-70
2023/07/31 08:08:19;;;;;;;2.30;1.90;;;;;;;22.61;86.57;96972.47;110122;1244;71329;-69
2023/07/31 08:10:48;;;;;;;2.80;2.20;;;;;;;22.59;86.92;96971.92;110149;1241;68583;-70
2023/07/31 08:13:17;;;;;;;2.60;2.30;;;;;;;22.64;86.57;96968.25;110089;1245;69760;-69
2023/07/31 08:15:46;;;;;;;2.10;1.80;;;;;;;22.77;88.03;96964.71;110189;1241;59757;-68
2023/07/31 08:18:17;;;;;;;;;;;;;;;22.97;87.76;96969.85;110143;1241;59696;-70
2023/07/31 08:20:47;;;;;;;3.50;2.00;;;;;;;23.15;87.29;96970.72;110177;1242;72098;-67
2023/07/31 08:23:16;;;;;;;2.90;2.00;;;;;;;23.33;85.12;96973.27;110233;1242;69190;-70
2023/07/31 08:25:45;;;;;;;2.50;2.20;;;;;;;23.49;83.54;96969.84;110138;1245;69094;-67
2023/07/31 08:28:14;;;;;;;2.60;1.90;;;;;;;23.67;82.45;96969.21;110090;1244;59690;-69
2023/07/31 08:30:43;;;;;;;2.80;2.10;;;;;;;23.91;80.80;96966.20;110115;1241;59670;-69
2023/07/31 08:33:13;;;;;;;3.20;2.50;;;;;;;23.88;79.54;96963.30;110131;1244;70891;-69
2023/07/31 08:35:41;;;;;;;2.30;2.10;;;;;;;24.00;78.26;96965.98;110085;1243;68451;-69
2023/07/31 08:38:12;;;;;;;;;;;;;;;24.06;76.72;96968.42;110076;1243;70034;-69
2023/07/31 08:40:41;;;;;;;2.90;2.20;;;;;;;23.94;77.81;96966.33;110112;1244;59746;-66
2023/07/31 08:43:09;;;;;;;;;;;;;;;24.24;78.53;96963.39;110145;1241;59672;-69
2023/07/31 08:45:43;;;;;;;2.60;2.20;;;;;;;24.41;79.16;96958.60;110101;1244;70728;-66
2023/07/31 08:48:12;;;;;;;2.90;2.40;;;;;;;24.53;74.75;96960.33;110106;1244;69617;-69
2023/07/31 08:50:42;;;;;;;3.70;2.20;;;;;;;24.58;75.53;96964.35;110147;1244;69232;-67
2023/07/31 08:53:11;;;;;;;2.80;2.50;;;;;;;24.54;74.21;96962.36;110118;1244;59697;-69
2023/07/31 08:55:41;;;;;;;2.50;2.30;;;;;;;24.56;77.26;96960.29;110133;1242;59743;-69
2023/07/31 08:58:13;;;;;;;2.70;2.20;;;;;;;24.66;76.83;96955.33;110180;1244;71967;-69
2023/07/31 09:00:44;;;;;;;2.50;2.00;;;;;;;24.88;76.87;96958.84;110194;1244;69785;-70
2023/07/31 09:03:15;;;;;;;3.50;3.00;;;;;;;25.09;75.78;96958.67;110152;1245;69302;-69
2023/07/31 09:05:46;;;;;;;3.20;2.20;;;;;;;25.15;73.01;96958.00;110149;1241;59711;-68
2023/07/31 09:08:21;;;;;;;2.60;2.20;;;;;;;25.09;74.54;96959.33;110172;1244;59673;-69
2023/07/31 09:10:50;;;;;;;3.30;3.00;;;;;;;25.11;74.21;96963.20;110261;1241;72032;-69
2023/07/31 09:13:19;;;;;;;;;;;;;;;25.04;70.88;96962.89;110198;1243;69817;-70
2023/07/31 09:15:48;;;;;;;2.60;2.30;;;;;;;25.23;73.43;96965.48;110146;1244;69873;-70
2023/07/31 09:18:19;;;;;;;3.20;2.30;;;;;;;25.43;72.29;96966.50;110108;1244;59723;-69
2023/07/31 09:21:04;;;;;;;2.70;2.20;;;;;;;25.52;73.12;96967.60;110139;1244;59695;-69
2023/07/31 09:23:44;;;;;;;4.20;2.50;;;;;;;25.53;71.32;96968.16;110151;1245;71966;-70
2023/07/31 09:26:29;;;;;;;7.70;2.80;;;;;;;25.56;72.36;96964.64;110044;1243;69020;-69
2023/07/31 09:29:04;;;;;;;2.30;2.10;;;;;;;25.77;71.55;96963.47;110138;1241;68429;-69
2023/07/31 09:31:40;;;;;;;2.90;2.30;;;;;;;25.92;70.61;96963.94;110170;1244;59741;-70
2023/07/31 09:34:11;;;;;;;3.00;2.40;;;;;;;25.86;70.28;96961.80;110162;1244;59783;-69
2023/07/31 09:36:42;;;;;;;2.80;2.30;;;;;;;26.31;70.45;96960.76;110121;1244;71493;-70
2023/07/31 09:39:12;;;;;;;3.20;2.70;;;;;;;26.95;67.37;96957.16;110126;1241;69100;-69
2023/07/31 09:41:45;;;;;;;2.70;2.20;;;;;;;27.58;63.33;96954.06;110111;1241;69298;-69
2023/07/31 09:44:13;;;;;;;2.50;2.20;;;;;;;28.29;60.88;96947.27;110169;1242;59697;-71
2023/07/31 09:46:42;;;;;;;2.50;2.00;;;;;;;28.94;56.93;96943.33;110190;1244;59681;-69
2023/07/31 09:49:14;;;;;;;2.90;2.10;;;;;;;28.98;52.70;96937.54;110096;1244;72004;-69
2023/07/31 09:51:43;;;;;;;2.70;1.80;;;;;;;29.91;52.91;96933.21;110134;1244;69843;-68
2023/07/31 09:54:14;;;;;;;2.40;2.00;;;;;;;30.38;53.62;96930.25;110139;1244;69428;-70
2023/07/31 09:56:47;;;;;;;2.90;2.10;;;;;;;31.39;51.41;96924.80;110157;1245;60040;-70
2023/07/31 09:59:19;;;;;;;2.30;1.80;;;;;;;31.56;49.44;96921.83;110205;1244;59750;-70
2023/07/31 10:01:55;;;;;;;2.20;1.60;;;;;;;32.23;48.07;96919.52;110175;1244;71940;-70
2023/07/31 10:04:27;;;;;;;2.20;1.80;;;;;;;31.83;45.77;96920.90;110171;1241;69264;-69
2023/07/31 10:07:01;;;;;;;2.80;1.90;;;;;;;30.87;45.77;96918.38;110160;1242;69254;-69
2023/07/31 10:09:32;;;;;;;2.20;2.00;;;;;;;30.30;47.34;96914.77;110150;1241;59742;-68
2023/07/31 10:12:06;;;;;;;3.10;2.20;;;;;;;29.96;50.14;96914.69;110201;1244;60084;-69
2023/07/31 10:14:36;;;;;;;2.70;1.90;;;;;;;29.54;52.24;96912.98;110163;1241;70517;-69
2023/07/31 10:17:07;;;;;;;2.40;2.00;;;;;;;28.83;52.85;96918.30;110166;1245;69803;-69
2023/07/31 10:19:37;;;;;;;2.00;1.70;;;;;;;27.96;53.37;96919.34;110113;1245;69915;-69
2023/07/31 10:22:06;;;;;;;2.80;1.80;;;;;;;27.28;56.69;96918.27;110158;1244;59699;-70
2023/07/31 10:24:37;;;;;;;3.20;1.90;;;;;;;27.25;58.38;96920.86;110088;1242;59744;-69
2023/07/31 10:27:07;;;;;;;2.00;1.70;;;;;;;26.87;60.68;96927.17;110131;1244;72310;-68
2023/07/31 10:29:39;;;;;;;2.50;1.80;;;;;;;26.45;63.50;96928.70;110153;1244;69294;-69
2023/07/31 10:32:11;;;;;;;3.50;2.00;;;;;;;26.08;65.18;96923.48;110189;1241;69217;-68
2023/07/31 10:34:42;;;;;;;2.10;1.70;;;;;;;25.57;67.19;96924.30;110173;1241;59712;-68
2023/07/31 10:37:29;;;;;;;1.80;1.60;;;;;;;25.24;67.76;96927.81;110168;1245;59676;-69
2023/07/31 10:40:23;;;;;;;3.00;1.90;;;;;;;24.98;69.25;96929.77;110155;1242;71169;-68
2023/07/31 10:42:55;;;;;;;2.10;1.40;;;;;;;24.80;69.94;96924.34;110149;1244;69261;-68
2023/07/31 10:45:26;;;;;;;2.50;1.90;;;;;;;24.47;72.37;96913.88;110142;1243;69271;-68
2023/07/31 10:48:06;;;;;;;2.70;1.90;;;;;;;24.47;70.25;96910.02;110128;1244;59710;-68
2023/07/31 10:50:46;;;;;;;1.90;1.70;;;;;;;24.78;70.24;96914.44;110171;1245;59761;-69
2023/07/31 10:53:29;;;;;;;2.90;2.00;;;;;;;25.53;69.48;96912.09;110128;1241;69645;-69
2023/07/31 10:56:07;;;;;;;2.30;1.80;;;;;;;26.22;68.80;96909.42;110128;1241;69213;-68
2023/07/31 10:58:37;;;;;;;2.70;2.20;;;;;;;26.76;67.81;96901.51;110120;1244;69908;-68
2023/07/31 11:01:06;;;;;;;3.30;2.00;;;;;;;27.12;65.10;96900.35;110106;1244;59686;-68
2023/07/31 11:03:56;;;;;;;;;;;;;;;27.33;60.83;96894.98;110148;1245;59676;-69
2023/07/31 11:06:30;;;;;;;2.40;2.00;;;;;;;27.49;58.97;96892.38;110129;1244;71403;-68
2023/07/31 11:08:59;;;;;;;3.50;2.40;;;;;;;27.30;61.09;96896.84;110054;1241;68612;-66
2023/07/31 11:11:28;;;;;;;2.60;2.00;;;;;;;27.22;60.26;96896.16;110122;1244;69932;-68
2023/07/31 11:13:57;;;;;;;;;;;;;;;27.46;57.57;96895.48;110166;1241;59764;-67
2023/07/31 11:16:26;;;;;;;2.70;2.10;;;;;;;27.65;56.68;96896.95;110142;1244;59689;-69
2023/07/31 11:18:55;;;;;;;2.60;2.00;;;;;;;28.19;57.75;96893.69;110128;1242;70752;-69
2023/07/31 11:21:25;;;;;;;2.10;1.70;;;;;;;28.98;57.34;96893.48;110081;1242;69683;-68
2023/07/31 11:23:58;;;;;;;3.00;2.00;;;;;;;29.71;54.21;96892.27;110096;1243;69934;-67
2023/07/31 11:26:28;;;;;;;1.90;1.60;;;;;;;30.04;51.97;96891.73;110087;1241;59729;-68
2023/07/31 11:28:57;;;;;;;3.40;2.00;;;;;;;30.15;51.62;96889.49;110108;1244;59660;-68
2023/07/31 11:31:25;;;;;;;;;;;;;;;29.69;52.46;96889.39;110139;1241;71264;-69
2023/07/31 11:34:07;;;;;;;2.70;1.90;;;;;;;28.98;53.73;96888.70;110099;1242;69806;-66
2023/07/31 11:36:36;;;;;;;2.40;2.10;;;;;;;28.44;54.55;96887.05;110114;1244;69871;-68
2023/07/31 11:39:08;;;;;;;2.20;2.00;;;;;;;27.19;58.72;96892.13;110117;1243;59690;-68
2023/07/31 11:41:41;;;;;;;3.30;2.20;;;;;;;26.78;59.84;96889.39;110118;1241;59756;-68
2023/07/31 11:44:10;;;;;;;2.50;1.80;;;;;;;26.32;60.81;96884.55;110138;1241;71371;-68